createdAt,value
2018-04-15T00:02:20.263Z,29.10
2018-04-15T00:04:47.744Z,31.23
2018-04-15T00:07:15.296Z,32.20
2018-04-15T00:09:42.758Z,31.80
2018-04-15T00:12:10.235Z,32.07
2018-04-15T00:14:37.729Z,31.03
2018-04-15T00:17:05.275Z,31.90
2018-04-15T00:19:32.776Z,29.20
2018-04-15T00:22:00.223Z,31.27
2018-04-15T00:24:27.806Z,32.00
2018-04-15T00:26:55.287Z,32.87
2018-04-15T00:29:22.831Z,32.90
2018-04-15T00:31:50.322Z,29.80
2018-04-15T00:34:17.781Z,30.77
2018-04-15T00:36:45.269Z,29.50
2018-04-15T00:39:12.777Z,29.50
2018-04-15T00:41:40.996Z,33.10
2018-04-15T00:44:08.482Z,29.83
2018-04-15T00:46:36.054Z,30.37
2018-04-15T00:49:03.608Z,31.40
2018-04-15T00:51:31.075Z,32.37
2018-04-15T00:54:10.503Z,30.50
2018-04-15T00:56:38.022Z,32.40
2018-04-15T00:59:05.590Z,31.20
2018-04-15T01:01:33.056Z,32.60
2018-04-15T01:04:00.635Z,30.60
2018-04-15T01:06:28.203Z,32.30
2018-04-15T01:08:55.676Z,30.27
2018-04-15T01:11:23.247Z,30.37
2018-04-15T01:13:50.723Z,31.20
2018-04-15T01:16:18.284Z,30.57
2018-04-15T01:18:45.749Z,30.87
2018-04-15T01:21:13.211Z,31.60
2018-04-15T01:23:40.700Z,31.47
2018-04-15T01:26:08.951Z,32.17
2018-04-15T01:28:36.453Z,32.63
2018-04-15T01:31:03.907Z,32.20
2018-04-15T01:33:31.388Z,32.37
2018-04-15T01:35:58.850Z,31.40
2018-04-15T01:38:26.317Z,33.43
2018-04-15T01:40:53.806Z,33.20
2018-04-15T01:43:21.358Z,33.83
2018-04-15T01:45:48.826Z,32.70
2018-04-15T01:48:16.400Z,32.43
2018-04-15T01:50:43.972Z,33.33
2018-04-15T01:53:11.434Z,32.80
2018-04-15T01:55:38.922Z,34.37
2018-04-15T01:58:06.386Z,34.83
2018-04-15T02:00:33.871Z,32.23
2018-04-15T02:03:01.350Z,33.53
2018-04-15T02:05:28.902Z,36.23
2018-04-15T02:07:56.363Z,36.47
2018-04-15T02:10:23.816Z,37.00
2018-04-15T02:12:51.315Z,35.60
2018-04-15T02:15:18.872Z,38.30
2018-04-15T02:17:46.458Z,40.80
2018-04-15T02:20:14.026Z,35.27
2018-04-15T02:22:41.490Z,36.90
2018-04-15T02:25:08.952Z,36.83
2018-04-15T02:27:36.431Z,37.00
2018-04-15T02:30:04.018Z,38.97
2018-04-15T02:32:31.592Z,38.43
2018-04-15T02:34:59.207Z,37.97
2018-04-15T02:37:26.723Z,38.87
2018-04-15T02:39:54.196Z,36.87
2018-04-15T02:42:21.687Z,36.97
2018-04-15T02:44:49.150Z,38.53
2018-04-15T02:47:16.613Z,38.80
2018-04-15T02:49:44.174Z,38.00
2018-04-15T02:52:11.656Z,39.03
2018-04-15T02:54:39.107Z,36.97
2018-04-15T02:57:06.572Z,36.47
2018-04-15T02:59:34.066Z,37.73
2018-04-15T03:02:01.546Z,37.37
2018-04-15T03:04:29.022Z,37.63
2018-04-15T03:06:57.268Z,36.67
2018-04-15T03:09:24.759Z,36.23
2018-04-15T03:11:52.235Z,37.20
2018-04-15T03:14:19.810Z,37.93
2018-04-15T03:16:47.362Z,37.40
2018-04-15T03:19:14.820Z,39.43
2018-04-15T03:21:42.404Z,36.93
2018-04-15T03:24:09.874Z,40.40
2018-04-15T03:26:37.448Z,39.80
2018-04-15T03:29:04.917Z,39.53
2018-04-15T03:31:32.383Z,39.03
2018-04-15T03:33:59.848Z,38.47
2018-04-15T03:36:27.311Z,40.30
2018-04-15T03:38:54.786Z,39.57
2018-04-15T03:41:22.251Z,41.70
2018-04-15T03:43:49.824Z,39.27
2018-04-15T03:46:17.308Z,40.73
2018-04-15T03:48:44.760Z,41.47
2018-04-15T03:51:12.258Z,41.27
2018-04-15T03:53:39.723Z,42.20
2018-04-15T03:56:07.993Z,43.70
2018-04-15T03:58:35.572Z,41.13
2018-04-15T04:01:03.056Z,43.80
2018-04-15T04:03:30.503Z,42.80
2018-04-15T04:05:57.982Z,39.70
2018-04-15T04:08:25.453Z,42.23
2018-04-15T04:10:52.924Z,41.50
2018-04-15T04:13:20.399Z,47.13
2018-04-15T04:15:47.856Z,43.63
2018-04-15T04:18:27.328Z,46.30
2018-04-15T04:24:07.824Z,45.90
2018-04-15T04:26:35.276Z,47.30
2018-04-15T04:29:02.746Z,47.57
2018-04-15T04:31:30.228Z,48.63
2018-04-15T04:33:57.689Z,48.87
2018-04-15T04:36:25.271Z,49.17
2018-04-15T04:38:52.732Z,50.70
2018-04-15T04:41:20.184Z,51.10
2018-04-15T04:43:47.662Z,51.33
2018-04-15T04:46:15.152Z,51.20
2018-04-15T04:48:42.607Z,52.20
2018-04-15T04:51:10.071Z,52.83
2018-04-15T04:53:37.644Z,51.70
2018-04-15T04:56:05.118Z,53.47
2018-04-15T04:58:32.592Z,50.55
2018-04-15T05:01:00.070Z,50.60
2018-04-15T05:03:27.550Z,49.60
2018-04-15T05:05:55.095Z,50.50
2018-04-15T05:08:22.567Z,50.10
2018-04-15T05:10:50.046Z,52.37
2018-04-15T05:13:17.500Z,52.97
2018-04-15T05:15:44.972Z,52.97
2018-04-15T05:18:12.432Z,50.40
2018-04-15T05:20:39.926Z,53.23
2018-04-15T05:23:07.399Z,51.80
2018-04-15T05:25:34.883Z,54.13
2018-04-15T05:28:02.450Z,52.97
2018-04-15T05:30:29.887Z,51.83
2018-04-15T05:32:57.344Z,55.03
2018-04-15T05:35:24.835Z,53.90
2018-04-15T05:37:52.311Z,52.60
2018-04-15T05:40:19.751Z,57.67
2018-04-15T05:42:47.216Z,56.33
2018-04-15T05:45:14.668Z,54.70
2018-04-15T05:47:42.185Z,57.77
2018-04-15T05:50:10.363Z,55.43
2018-04-15T05:52:37.850Z,51.47
2018-04-15T05:55:05.328Z,59.07
2018-04-15T05:57:32.795Z,58.77
2018-04-15T06:00:00.352Z,55.33
2018-04-15T06:02:27.813Z,55.20
2018-04-15T06:04:55.279Z,56.80
2018-04-15T06:07:22.754Z,54.67
2018-04-15T06:09:50.200Z,53.47
2018-04-15T06:12:17.695Z,52.00
2018-04-15T06:14:45.160Z,53.97
2018-04-15T06:17:12.634Z,54.20
2018-04-15T06:19:40.119Z,53.97
2018-04-15T06:22:07.578Z,55.80
2018-04-15T06:24:35.124Z,56.00
2018-04-15T06:27:02.525Z,55.20
2018-04-15T06:29:29.990Z,55.40
2018-04-15T06:31:57.460Z,55.57
2018-04-15T06:34:24.919Z,51.70
2018-04-15T06:36:52.410Z,47.50
2018-04-15T06:39:19.852Z,52.40
2018-04-15T06:41:47.308Z,50.67
2018-04-15T06:44:14.808Z,48.43
2018-04-15T06:46:42.280Z,50.30
2018-04-15T06:49:09.754Z,49.40
2018-04-15T06:51:37.196Z,47.47
2018-04-15T06:54:04.693Z,52.17
2018-04-15T06:56:32.140Z,64.57
2018-04-15T06:58:59.606Z,66.47
2018-04-15T07:01:27.096Z,62.65
2018-04-15T07:03:54.552Z,64.40
2018-04-15T07:06:22.075Z,57.62
2018-04-15T07:08:49.500Z,56.13
2018-04-15T07:11:16.982Z,56.23
2018-04-15T07:13:44.439Z,52.88
2018-04-15T07:16:11.915Z,50.05
2018-04-15T07:18:39.368Z,45.60
2018-04-15T07:21:06.828Z,45.80
2018-04-15T07:23:34.335Z,43.13
2018-04-15T07:26:01.814Z,41.00
2018-04-15T07:28:29.268Z,37.22
2018-04-15T07:30:56.719Z,38.35
2018-04-15T07:33:24.189Z,36.97
2018-04-15T07:35:51.662Z,35.95
2018-04-15T07:38:19.130Z,36.00
2018-04-15T07:40:46.598Z,32.97
2018-04-15T07:43:14.060Z,31.08
2018-04-15T07:45:41.533Z,34.30
2018-04-15T07:48:09.007Z,33.00
2018-04-15T07:50:36.473Z,33.08
2018-04-15T07:53:03.920Z,31.30
2018-04-15T07:55:31.431Z,31.75
2018-04-15T07:57:58.998Z,29.77
2018-04-15T08:00:26.451Z,29.17
2018-04-15T08:02:53.912Z,27.77
2018-04-15T08:05:21.364Z,21.30
2018-04-15T08:07:48.835Z,20.53
2018-04-15T08:10:16.306Z,19.37
2018-04-15T08:12:43.804Z,19.00
2018-04-15T08:15:11.273Z,17.67
2018-04-15T08:17:38.740Z,18.43
2018-04-15T08:20:06.210Z,14.67
2018-04-15T08:22:33.656Z,15.23
2018-04-15T08:25:01.145Z,14.57
2018-04-15T08:27:28.614Z,14.60
2018-04-15T08:29:56.088Z,13.00
2018-04-15T08:32:23.577Z,13.77
2018-04-15T08:34:51.038Z,11.80
2018-04-15T08:37:18.511Z,11.80
2018-04-15T08:39:45.956Z,13.17
2018-04-15T08:42:13.458Z,10.83
2018-04-15T08:44:41.019Z,10.23
2018-04-15T08:47:08.575Z,12.63
2018-04-15T08:49:36.030Z,13.10
2018-04-15T08:52:03.522Z,11.32
2018-04-15T08:54:31.121Z,11.60
2018-04-15T08:56:58.659Z,11.57
2018-04-15T08:59:26.113Z,9.90
2018-04-15T09:01:53.580Z,10.02
2018-04-15T09:04:21.034Z,10.50
2018-04-15T09:06:48.491Z,10.15
2018-04-15T09:09:16.722Z,9.65
2018-04-15T09:11:44.163Z,10.90
2018-04-15T09:14:11.714Z,9.77
2018-04-15T09:16:39.935Z,9.53
2018-04-15T09:19:07.399Z,10.35
2018-04-15T09:21:34.866Z,10.48
2018-04-15T09:24:02.327Z,11.30
2018-04-15T09:26:29.835Z,9.63
2018-04-15T09:28:58.030Z,9.85
2018-04-15T09:31:25.494Z,8.80
2018-04-15T09:33:52.982Z,7.68
2018-04-15T09:36:20.538Z,7.93
2018-04-15T09:38:48.006Z,8.02
2018-04-15T09:41:15.467Z,8.85
2018-04-15T09:43:43.012Z,7.70
2018-04-15T09:46:10.514Z,7.90
2018-04-15T09:48:37.972Z,7.40
2018-04-15T09:51:05.444Z,9.52
2018-04-15T09:53:32.935Z,7.28
2018-04-15T09:56:00.386Z,6.55
2018-04-15T09:58:27.866Z,6.40
2018-04-15T10:01:00.999Z,6.30
2018-04-15T10:03:29.234Z,6.17
2018-04-15T10:05:56.682Z,6.37
2018-04-15T10:08:24.132Z,6.20
2018-04-15T10:10:52.339Z,4.50
2018-04-15T10:13:19.866Z,4.80
2018-04-15T10:15:47.322Z,4.47
2018-04-15T10:18:14.760Z,4.60
2018-04-15T10:20:42.267Z,4.90
2018-04-15T10:23:09.712Z,4.80
2018-04-15T10:25:37.170Z,4.78
2018-04-15T10:28:04.635Z,5.20
2018-04-15T10:30:32.086Z,4.72
2018-04-15T10:33:00.320Z,4.43
2018-04-15T10:35:27.803Z,4.20
2018-04-15T10:37:55.263Z,4.60
2018-04-15T10:40:22.715Z,4.30
2018-04-15T10:42:50.206Z,4.03
2018-04-15T10:45:17.679Z,4.20
2018-04-15T10:47:45.237Z,4.30
2018-04-15T10:50:12.767Z,4.07
2018-04-15T10:52:41.007Z,3.90
2018-04-15T10:55:08.463Z,4.30
2018-04-15T10:57:35.932Z,4.55
2018-04-15T11:00:03.414Z,3.60
2018-04-15T11:02:30.868Z,4.20
2018-04-15T11:04:58.370Z,4.05
2018-04-15T11:07:25.926Z,4.40
2018-04-15T11:09:53.375Z,4.70
2018-04-15T11:12:20.863Z,5.10
2018-04-15T11:14:48.308Z,4.50
2018-04-15T11:17:15.756Z,4.53
2018-04-15T11:19:43.203Z,4.87
2018-04-15T11:22:11.468Z,4.90
2018-04-15T11:24:38.944Z,4.90
2018-04-15T11:27:06.399Z,4.60
2018-04-15T11:29:33.840Z,4.27
2018-04-15T11:32:01.284Z,4.43
2018-04-15T11:34:28.759Z,5.40
2018-04-15T11:36:56.283Z,4.65
2018-04-15T11:39:23.749Z,4.70
2018-04-15T11:41:51.214Z,4.68
2018-04-15T11:44:18.687Z,4.50
2018-04-15T11:46:46.139Z,4.40
2018-04-15T11:49:13.676Z,4.70
2018-04-15T11:51:41.130Z,5.22
2018-04-15T11:54:09.367Z,4.80
2018-04-15T11:56:36.830Z,4.93
2018-04-15T11:59:04.265Z,5.57
2018-04-15T12:01:32.525Z,5.65
2018-04-15T12:04:01.491Z,5.60
2018-04-15T12:06:28.935Z,5.13
2018-04-15T12:08:56.402Z,5.37
2018-04-15T12:11:24.618Z,6.43
2018-04-15T12:13:52.075Z,5.97
2018-04-15T12:16:19.564Z,6.60
2018-04-15T12:18:47.075Z,6.37
2018-04-15T12:21:14.515Z,7.20
2018-04-15T12:23:41.991Z,6.93
2018-04-15T12:26:09.473Z,7.18
2018-04-15T12:28:36.933Z,7.20
2018-04-15T12:31:04.390Z,6.70
2018-04-15T12:33:31.863Z,7.40
2018-04-15T12:35:59.329Z,8.57
2018-04-15T12:38:26.780Z,6.20
2018-04-15T12:40:54.249Z,6.43
2018-04-15T12:43:21.741Z,6.53
2018-04-15T12:45:49.210Z,6.35
2018-04-15T12:48:16.677Z,6.00
2018-04-15T12:50:44.137Z,6.37
2018-04-15T12:53:11.576Z,6.85
2018-04-15T12:55:39.068Z,7.00
2018-04-15T12:58:06.551Z,7.28
2018-04-15T13:00:34.026Z,6.90
2018-04-15T13:03:01.504Z,6.80
2018-04-15T13:05:28.954Z,7.00
2018-04-15T13:07:56.454Z,6.95
2018-04-15T13:10:23.901Z,6.40
2018-04-15T13:12:51.342Z,6.00
2018-04-15T13:15:18.804Z,5.20
2018-04-15T13:17:46.328Z,5.30
2018-04-15T13:20:15.285Z,5.70
2018-04-15T13:22:42.777Z,4.80
2018-04-15T13:25:10.236Z,6.10
2018-04-15T13:27:37.727Z,4.45
2018-04-15T13:30:05.173Z,4.40
2018-04-15T13:32:32.608Z,4.10
2018-04-15T13:35:00.830Z,3.92
2018-04-15T13:37:28.276Z,3.97
2018-04-15T13:39:55.802Z,3.80
2018-04-15T13:42:23.261Z,3.42
2018-04-15T13:44:50.819Z,3.90
2018-04-15T13:47:18.291Z,3.78
2018-04-15T13:49:45.872Z,3.90
2018-04-15T13:52:13.348Z,3.70
2018-04-15T13:54:40.804Z,3.50
2018-04-15T13:57:08.256Z,3.50
2018-04-15T13:59:35.752Z,3.50
2018-04-15T14:02:03.225Z,3.53
2018-04-15T14:04:30.792Z,3.50
2018-04-15T14:06:58.244Z,3.33
2018-04-15T14:09:25.702Z,3.42
2018-04-15T14:11:53.210Z,3.67
2018-04-15T14:14:20.636Z,2.80
2018-04-15T14:16:48.125Z,3.33
2018-04-15T14:19:15.614Z,2.83
2018-04-15T14:21:43.062Z,3.50
2018-04-15T14:24:10.537Z,3.20
2018-04-15T14:26:37.976Z,3.80
2018-04-15T14:29:05.412Z,3.60
2018-04-15T14:31:32.935Z,3.80
2018-04-15T14:34:00.372Z,3.93
2018-04-15T14:36:28.599Z,4.20
2018-04-15T14:38:56.065Z,3.97
2018-04-15T14:41:23.518Z,4.10
2018-04-15T14:43:51.021Z,4.00
2018-04-15T14:46:18.484Z,4.00
2018-04-15T14:48:45.964Z,3.53
2018-04-15T14:58:35.412Z,4.50
2018-04-15T15:08:23.926Z,4.00
2018-04-15T17:30:38.669Z,3.20
2018-04-15T17:33:06.151Z,4.75
2018-04-15T17:35:33.621Z,14.57
2018-04-15T17:38:01.082Z,13.32
2018-04-15T17:40:28.557Z,11.23
2018-04-15T17:42:56.028Z,4.90
2018-04-15T17:45:23.572Z,3.80
2018-04-15T17:47:51.067Z,4.10
2018-04-15T17:50:18.535Z,4.90
2018-04-15T17:52:46.037Z,20.10
2018-04-15T17:55:13.495Z,11.25
2018-04-15T17:57:41.716Z,15.13
2018-04-15T18:00:09.230Z,9.75
2018-04-15T18:02:36.878Z,7.93
2018-04-15T18:05:04.373Z,6.40
2018-04-15T18:07:31.851Z,5.30
2018-04-15T18:09:59.284Z,4.60
2018-04-15T18:12:26.749Z,4.50
2018-04-15T18:14:54.246Z,4.10
2018-04-15T18:17:21.800Z,4.60
2018-04-15T18:19:49.267Z,3.47
2018-04-15T18:22:16.774Z,79.80
2018-04-15T18:24:44.312Z,16.17
2018-04-15T18:27:11.766Z,3.90
2018-04-15T18:29:39.213Z,2.73
2018-04-15T18:32:06.679Z,2.70
2018-04-15T18:34:34.892Z,3.37
2018-04-15T18:37:02.461Z,8.37
2018-04-15T18:39:30.633Z,4.20
2018-04-15T18:41:58.141Z,3.47
2018-04-15T18:44:25.622Z,3.47
2018-04-15T18:46:53.078Z,3.87
2018-04-15T18:49:20.554Z,3.50
2018-04-15T18:51:48.017Z,3.67
2018-04-15T18:54:15.469Z,3.90
2018-04-15T18:56:42.917Z,3.63
2018-04-15T18:59:10.433Z,3.60
2018-04-15T19:01:37.884Z,3.47
2018-04-15T19:04:05.354Z,3.23
2018-04-15T19:06:32.799Z,3.60
2018-04-15T19:09:00.256Z,3.90
2018-04-15T19:11:28.474Z,3.47
2018-04-15T19:13:55.928Z,3.40
2018-04-15T19:16:23.450Z,3.63
2018-04-15T19:18:51.732Z,4.00
2018-04-15T19:21:19.317Z,4.50
2018-04-15T19:23:46.875Z,4.77
2018-04-15T19:26:14.359Z,4.73
2018-04-15T19:28:41.830Z,4.73
2018-04-15T19:31:09.298Z,5.30
2018-04-15T19:33:36.736Z,4.40
2018-04-15T19:36:04.225Z,4.37
2018-04-15T19:38:31.790Z,4.30
2018-04-15T19:40:59.285Z,4.67
2018-04-15T19:43:26.716Z,4.40
2018-04-15T19:45:54.193Z,4.70
2018-04-15T19:48:21.659Z,4.97
2018-04-15T19:50:49.105Z,5.37
2018-04-15T19:53:16.551Z,4.93
2018-04-15T19:55:44.032Z,5.40
2018-04-15T19:58:11.475Z,5.30
2018-04-15T20:00:39.731Z,5.97
2018-04-15T20:03:07.301Z,6.23
2018-04-15T20:05:34.860Z,6.60
2018-04-15T20:08:02.448Z,5.93
2018-04-15T20:10:29.979Z,5.70
2018-04-15T20:12:57.411Z,5.73
2018-04-15T20:15:25.671Z,6.70
2018-04-15T20:17:53.251Z,6.30
2018-04-15T20:20:20.826Z,6.77
2018-04-15T20:22:48.303Z,6.93
2018-04-15T20:25:15.756Z,6.73
2018-04-15T20:27:43.230Z,7.37
2018-04-15T20:30:10.679Z,7.23
2018-04-15T20:32:38.135Z,8.60
2018-04-15T20:35:05.630Z,10.93
2018-04-15T20:37:33.106Z,12.40
2018-04-15T20:40:00.582Z,10.40
2018-04-15T20:42:28.041Z,9.90
2018-04-15T20:44:55.523Z,10.20
2018-04-15T20:47:22.986Z,9.57
2018-04-15T20:49:50.440Z,9.43
2018-04-15T20:52:17.926Z,10.10
2018-04-15T20:54:46.147Z,10.00
2018-04-15T20:57:14.419Z,10.67
2018-04-15T20:59:42.692Z,10.80
2018-04-15T21:02:10.170Z,11.67
2018-04-15T21:04:37.626Z,12.70
2018-04-15T21:07:05.093Z,12.90
2018-04-15T21:09:32.548Z,12.77
2018-04-15T21:12:00.058Z,11.83
2018-04-15T21:14:27.510Z,10.63
2018-04-15T21:16:54.965Z,11.10
2018-04-15T21:19:22.551Z,11.33
2018-04-15T21:21:50.176Z,10.37
2018-04-15T21:24:17.644Z,9.13
2018-04-15T21:26:45.144Z,9.37
2018-04-15T21:29:12.610Z,10.77
2018-04-15T21:31:40.087Z,10.03
2018-04-15T21:34:07.555Z,9.60
2018-04-15T21:36:35.039Z,9.53
2018-04-15T21:39:02.504Z,9.60
2018-04-15T21:41:30.000Z,10.93
2018-04-15T21:43:57.474Z,10.87
2018-04-15T21:46:25.004Z,9.90
2018-04-15T21:48:52.487Z,10.40
2018-04-15T21:51:19.949Z,9.87
2018-04-15T21:53:47.434Z,10.53
2018-04-15T21:56:14.910Z,9.60
2018-04-15T21:58:42.385Z,9.60
2018-04-15T22:01:09.851Z,11.07
2018-04-15T22:03:38.139Z,10.30
2018-04-15T22:06:05.591Z,10.93
2018-04-15T22:08:33.061Z,10.63
2018-04-15T22:11:00.525Z,10.00
2018-04-15T22:13:27.997Z,10.33
2018-04-15T22:15:55.562Z,11.03
2018-04-15T22:18:23.044Z,10.13
2018-04-15T22:20:50.510Z,10.83
2018-04-15T22:23:18.074Z,10.20
2018-04-15T22:25:45.655Z,10.00
2018-04-15T22:28:13.226Z,9.63
2018-04-15T22:30:40.692Z,10.53
2018-04-15T22:33:08.162Z,10.30
2018-04-15T22:35:35.639Z,11.43
2018-04-15T22:38:03.096Z,11.53
2018-04-15T22:40:30.665Z,11.67
2018-04-15T22:42:58.147Z,10.90
2018-04-15T22:45:25.677Z,10.37
2018-04-15T22:47:58.910Z,10.57
2018-04-15T22:50:31.937Z,11.87
2018-04-15T22:52:59.404Z,11.00
2018-04-15T22:55:26.967Z,12.30
2018-04-15T22:57:54.542Z,12.67
2018-04-15T23:00:22.001Z,11.90
2018-04-15T23:02:49.483Z,11.40
2018-04-15T23:05:16.940Z,11.73
2018-04-15T23:07:44.405Z,12.10
2018-04-15T23:10:11.866Z,12.73
2018-04-15T23:12:39.329Z,11.33
2018-04-15T23:15:06.798Z,11.90
2018-04-15T23:17:34.285Z,12.20
2018-04-15T23:20:01.762Z,13.10
2018-04-15T23:22:29.325Z,12.30
2018-04-15T23:24:56.806Z,11.67
2018-04-15T23:27:24.364Z,12.63
2018-04-15T23:29:51.815Z,14.50
2018-04-15T23:32:19.322Z,12.50
2018-04-15T23:34:46.801Z,14.10
2018-04-15T23:37:15.228Z,14.40
2018-04-15T23:39:42.686Z,14.17
2018-04-15T23:42:10.167Z,13.63
2018-04-15T23:44:37.640Z,13.07
2018-04-15T23:47:05.145Z,13.43
2018-04-15T23:49:32.625Z,13.33
2018-04-15T23:52:00.210Z,14.10
2018-04-15T23:54:27.656Z,16.60
2018-04-15T23:56:55.156Z,14.50
2018-04-15T23:59:22.608Z,13.83
